createdAt,value
2018-12-29T00:00:29.958Z,9.13
2018-12-29T00:02:58.373Z,8.43
2018-12-29T00:05:26.778Z,9.70
2018-12-29T00:07:55.221Z,8.00
2018-12-29T00:10:23.601Z,8.13
2018-12-29T00:12:54.046Z,7.93
2018-12-29T00:15:22.458Z,9.17
2018-12-29T00:17:50.848Z,8.73
2018-12-29T00:20:19.309Z,9.87
2018-12-29T00:22:47.657Z,10.07
2018-12-29T00:25:15.977Z,9.17
2018-12-29T00:27:44.357Z,8.50
2018-12-29T00:30:12.854Z,7.17
2018-12-29T00:32:41.202Z,8.43
2018-12-29T00:35:09.570Z,8.97
2018-12-29T00:37:37.946Z,8.20
2018-12-29T00:40:06.277Z,9.10
2018-12-29T00:42:34.649Z,7.73
2018-12-29T00:45:03.111Z,8.97
2018-12-29T00:47:31.649Z,8.57
2018-12-29T00:50:00.022Z,7.67
2018-12-29T00:52:28.407Z,8.47
2018-12-29T00:54:56.759Z,9.27
2018-12-29T00:57:25.111Z,7.53
2018-12-29T00:59:53.955Z,9.70
2018-12-29T01:02:24.197Z,8.83
2018-12-29T01:04:52.547Z,7.40
2018-12-29T01:07:21.002Z,7.63
2018-12-29T01:09:49.309Z,7.00
2018-12-29T01:12:17.685Z,8.73
2018-12-29T01:14:46.114Z,8.20
2018-12-29T01:17:14.434Z,7.80
2018-12-29T01:19:42.791Z,8.00
2018-12-29T01:22:11.113Z,10.00
2018-12-29T01:24:39.438Z,7.47
2018-12-29T01:27:07.790Z,8.20
2018-12-29T01:29:36.164Z,8.07
2018-12-29T01:32:04.482Z,9.23
2018-12-29T01:34:32.813Z,9.23
2018-12-29T01:37:01.162Z,7.30
2018-12-29T01:39:29.573Z,8.60
2018-12-29T01:41:57.897Z,7.23
2018-12-29T01:44:26.629Z,8.90
2018-12-29T01:46:54.939Z,7.47
2018-12-29T01:49:23.327Z,9.73
2018-12-29T01:51:51.669Z,8.30
2018-12-29T01:54:20.111Z,8.33
2018-12-29T01:56:48.539Z,8.83
2018-12-29T01:59:16.873Z,8.40
2018-12-29T02:01:45.222Z,7.47
2018-12-29T02:04:13.570Z,8.73
2018-12-29T02:06:41.918Z,8.63
2018-12-29T02:09:10.313Z,7.67
2018-12-29T02:11:38.650Z,8.77
2018-12-29T02:14:06.966Z,8.60
2018-12-29T02:16:35.358Z,8.03
2018-12-29T02:19:03.734Z,7.17
2018-12-29T02:21:32.061Z,7.87
2018-12-29T02:24:00.397Z,8.23
2018-12-29T02:26:28.902Z,7.53
2018-12-29T02:28:57.259Z,7.93
2018-12-29T02:31:25.590Z,8.57
2018-12-29T02:33:53.925Z,8.10
2018-12-29T02:36:22.290Z,8.47
2018-12-29T02:38:50.630Z,7.40
2018-12-29T02:41:18.978Z,7.37
2018-12-29T02:43:47.361Z,6.43
2018-12-29T02:46:15.686Z,8.50
2018-12-29T02:48:44.029Z,7.97
2018-12-29T02:51:12.445Z,7.57
2018-12-29T02:53:40.806Z,8.27
2018-12-29T02:56:09.133Z,7.17
2018-12-29T02:58:37.462Z,7.70
2018-12-29T03:01:05.788Z,8.40
2018-12-29T03:03:34.133Z,7.20
2018-12-29T03:06:02.804Z,8.17
2018-12-29T03:08:31.133Z,8.73
2018-12-29T03:10:59.449Z,7.47
2018-12-29T03:13:27.826Z,8.13
2018-12-29T03:15:56.222Z,6.70
2018-12-29T03:18:24.599Z,8.20
2018-12-29T03:20:53.030Z,8.20
2018-12-29T03:23:21.382Z,6.10
2018-12-29T03:25:49.757Z,8.03
2018-12-29T03:28:18.130Z,7.33
2018-12-29T03:30:46.526Z,7.73
2018-12-29T03:33:14.935Z,8.80
2018-12-29T03:35:43.291Z,8.37
2018-12-29T03:38:11.598Z,8.07
2018-12-29T03:40:39.982Z,8.00
2018-12-29T03:43:08.326Z,9.47
2018-12-29T03:45:37.022Z,9.03
2018-12-29T03:48:05.333Z,7.97
2018-12-29T03:50:33.694Z,8.37
2018-12-29T03:53:02.149Z,8.47
2018-12-29T03:55:30.478Z,8.23
2018-12-29T03:57:58.827Z,8.70
2018-12-29T04:00:27.135Z,9.53
2018-12-29T04:02:55.515Z,8.30
2018-12-29T04:05:23.910Z,6.90
2018-12-29T04:07:52.279Z,7.73
2018-12-29T04:10:20.738Z,8.53
2018-12-29T04:12:51.714Z,9.20
2018-12-29T04:15:20.206Z,6.67
2018-12-29T04:17:48.520Z,10.27
2018-12-29T04:20:16.910Z,7.37
2018-12-29T04:22:45.337Z,8.13
2018-12-29T04:25:13.670Z,8.67
2018-12-29T04:27:42.017Z,6.73
2018-12-29T04:30:10.375Z,7.00
2018-12-29T04:32:38.722Z,7.57
2018-12-29T04:35:07.154Z,7.47
2018-12-29T04:37:35.536Z,8.90
2018-12-29T04:40:04.354Z,9.20
2018-12-29T04:42:32.769Z,9.50
2018-12-29T04:45:01.203Z,8.53
2018-12-29T04:47:29.826Z,8.33
2018-12-29T04:49:58.126Z,5.77
2018-12-29T04:52:26.574Z,8.57
2018-12-29T04:54:55.025Z,7.70
2018-12-29T04:57:23.601Z,8.67
2018-12-29T04:59:51.951Z,10.43
2018-12-29T05:02:20.434Z,9.47
2018-12-29T05:04:48.745Z,6.80
2018-12-29T05:07:17.065Z,9.37
2018-12-29T05:09:45.456Z,10.10
2018-12-29T05:12:13.844Z,10.07
2018-12-29T05:14:42.166Z,8.30
2018-12-29T05:17:10.528Z,9.87
2018-12-29T05:19:38.925Z,10.50
2018-12-29T05:22:07.497Z,7.77
2018-12-29T05:24:36.005Z,7.53
2018-12-29T05:27:04.473Z,9.13
2018-12-29T05:29:32.838Z,9.57
2018-12-29T05:32:01.157Z,7.27
2018-12-29T05:34:29.485Z,9.77
2018-12-29T05:36:57.873Z,8.47
2018-12-29T05:39:26.194Z,9.03
2018-12-29T05:41:54.602Z,10.80
2018-12-29T05:44:22.921Z,8.77
2018-12-29T05:46:51.323Z,9.67
2018-12-29T05:49:19.909Z,8.37
2018-12-29T05:51:48.291Z,7.70
2018-12-29T05:54:16.663Z,7.27
2018-12-29T05:56:44.970Z,8.43
2018-12-29T05:59:13.303Z,9.03
2018-12-29T06:01:41.770Z,9.40
2018-12-29T06:04:10.094Z,8.47
2018-12-29T06:06:38.431Z,9.80
2018-12-29T06:09:06.786Z,8.73
2018-12-29T06:11:35.159Z,10.17
2018-12-29T06:14:03.463Z,9.23
2018-12-29T06:16:31.798Z,8.77
2018-12-29T06:19:00.182Z,8.93
2018-12-29T06:21:28.494Z,7.17
2018-12-29T06:23:56.841Z,8.10
2018-12-29T06:26:25.309Z,7.43
2018-12-29T06:28:53.793Z,9.87
2018-12-29T06:31:22.153Z,10.17
2018-12-29T06:33:50.507Z,8.73
2018-12-29T06:36:18.859Z,8.27
2018-12-29T06:38:47.279Z,8.47
2018-12-29T06:41:15.658Z,7.43
2018-12-29T06:43:44.048Z,10.47
2018-12-29T06:46:12.502Z,8.43
2018-12-29T06:48:40.849Z,8.53
2018-12-29T06:51:09.165Z,8.13
2018-12-29T06:53:37.581Z,6.60
2018-12-29T06:56:05.973Z,9.83
2018-12-29T06:58:34.299Z,7.87
2018-12-29T07:01:02.726Z,9.87
2018-12-29T07:03:31.069Z,8.17
2018-12-29T07:05:59.469Z,9.30
2018-12-29T07:08:27.882Z,8.33
2018-12-29T07:10:56.461Z,8.23
2018-12-29T07:13:24.795Z,8.37
2018-12-29T07:15:53.190Z,7.37
2018-12-29T07:18:21.605Z,7.73
2018-12-29T07:20:49.918Z,8.40
2018-12-29T07:23:18.246Z,8.10
2018-12-29T07:25:46.657Z,8.03
2018-12-29T07:28:15.018Z,9.10
2018-12-29T07:30:43.337Z,8.80
2018-12-29T07:33:11.902Z,8.93
2018-12-29T07:35:40.261Z,8.43
2018-12-29T07:38:08.590Z,9.20
2018-12-29T07:40:36.929Z,5.37
2018-12-29T07:43:05.323Z,6.83
2018-12-29T07:45:33.794Z,9.13
2018-12-29T07:48:02.202Z,9.70
2018-12-29T07:50:30.554Z,8.80
2018-12-29T07:52:59.150Z,8.17
2018-12-29T07:55:27.477Z,8.33
2018-12-29T07:57:55.814Z,9.30
2018-12-29T08:00:24.174Z,8.13
2018-12-29T08:02:52.646Z,8.63
2018-12-29T08:05:21.002Z,8.00
2018-12-29T08:07:49.589Z,7.50
2018-12-29T08:10:17.950Z,8.43
2018-12-29T08:12:46.274Z,8.70
2018-12-29T08:15:14.649Z,7.87
2018-12-29T08:17:43.098Z,8.33
2018-12-29T08:20:11.477Z,8.57
2018-12-29T08:22:39.790Z,9.20
2018-12-29T08:25:08.251Z,7.93
2018-12-29T08:27:36.571Z,8.27
2018-12-29T08:30:05.260Z,8.37
2018-12-29T08:32:33.755Z,9.00
2018-12-29T08:35:02.199Z,8.10
2018-12-29T08:37:30.649Z,6.23
2018-12-29T08:39:58.966Z,9.07
2018-12-29T08:42:27.322Z,8.80
2018-12-29T08:44:55.701Z,10.13
2018-12-29T08:47:24.080Z,8.80
2018-12-29T08:49:52.466Z,9.77
2018-12-29T08:52:20.786Z,9.90
2018-12-29T08:54:49.297Z,8.10
2018-12-29T08:57:17.630Z,9.27
2018-12-29T08:59:45.955Z,9.03
2018-12-29T09:02:14.273Z,7.97
2018-12-29T09:04:42.610Z,7.10
2018-12-29T09:07:10.953Z,7.57
2018-12-29T09:09:39.353Z,8.00
2018-12-29T09:12:07.669Z,7.83
2018-12-29T09:14:36.238Z,7.57
2018-12-29T09:17:11.885Z,8.30
2018-12-29T09:19:34.635Z,9.30
2018-12-29T09:22:02.998Z,8.10
2018-12-29T09:24:31.326Z,8.27
2018-12-29T09:26:59.673Z,8.27
2018-12-29T09:29:28.006Z,7.63
2018-12-29T09:31:56.370Z,8.43
2018-12-29T09:34:24.694Z,8.27
2018-12-29T09:36:53.038Z,8.23
2018-12-29T09:39:21.486Z,6.53
2018-12-29T09:41:51.353Z,7.23
2018-12-29T09:44:19.934Z,8.37
2018-12-29T09:46:48.323Z,7.53
2018-12-29T09:49:16.810Z,9.17
2018-12-29T09:51:45.122Z,8.30
2018-12-29T09:54:13.820Z,7.73
2018-12-29T09:56:42.479Z,8.10
2018-12-29T09:59:10.822Z,7.67
2018-12-29T10:01:39.461Z,8.17
2018-12-29T10:04:07.837Z,8.50
2018-12-29T10:06:36.210Z,8.00
2018-12-29T10:09:05.922Z,8.10
2018-12-29T10:11:34.293Z,7.93
2018-12-29T10:14:02.710Z,9.33
2018-12-29T10:16:31.190Z,9.33
2018-12-29T10:18:59.494Z,7.53
2018-12-29T10:21:27.823Z,9.23
2018-12-29T10:23:56.148Z,9.10
2018-12-29T10:26:24.477Z,9.13
2018-12-29T10:28:52.830Z,8.33
2018-12-29T10:31:21.225Z,9.03
2018-12-29T10:33:50.026Z,8.93
2018-12-29T10:36:18.387Z,9.53
2018-12-29T10:38:47.148Z,9.97
2018-12-29T10:41:15.466Z,7.93
2018-12-29T10:43:43.786Z,8.87
2018-12-29T10:46:12.209Z,9.50
2018-12-29T10:48:40.574Z,10.97
2018-12-29T10:51:08.966Z,10.20
2018-12-29T10:53:37.289Z,9.70
2018-12-29T10:56:05.641Z,9.67
2018-12-29T10:58:33.981Z,10.03
2018-12-29T11:01:02.309Z,8.53
2018-12-29T11:03:30.637Z,6.27
2018-12-29T11:05:59.070Z,7.87
2018-12-29T11:08:27.811Z,8.17
2018-12-29T11:10:56.155Z,8.40
2018-12-29T11:13:25.339Z,7.40
2018-12-29T11:15:53.873Z,9.53
2018-12-29T11:18:22.445Z,8.57
2018-12-29T11:20:50.838Z,9.57
2018-12-29T11:23:19.225Z,8.90
2018-12-29T11:25:47.769Z,25.27
2018-12-29T11:28:16.195Z,9.93
2018-12-29T11:30:44.786Z,10.90
2018-12-29T11:33:13.310Z,9.30
2018-12-29T11:35:41.743Z,9.80
2018-12-29T11:38:10.430Z,9.03
2018-12-29T11:40:38.910Z,9.80
2018-12-29T11:43:07.324Z,10.17
2018-12-29T11:45:35.820Z,8.13
2018-12-29T11:48:04.168Z,10.13
2018-12-29T11:50:32.640Z,9.97
2018-12-29T11:53:01.057Z,8.70
2018-12-29T11:55:29.539Z,8.23
2018-12-29T11:57:58.203Z,8.07
2018-12-29T12:00:26.604Z,10.00
2018-12-29T12:02:55.031Z,8.00
2018-12-29T12:05:23.745Z,9.93
2018-12-29T12:07:52.183Z,9.90
2018-12-29T12:10:21.049Z,8.83
2018-12-29T12:12:49.519Z,8.47
2018-12-29T12:15:17.987Z,7.40
2018-12-29T12:17:46.502Z,10.57
2018-12-29T12:20:15.047Z,9.83
2018-12-29T12:22:43.952Z,9.30
2018-12-29T12:25:12.523Z,8.83
2018-12-29T12:27:41.047Z,8.80
2018-12-29T12:30:09.507Z,9.90
2018-12-29T12:32:38.047Z,7.90
2018-12-29T12:35:07.057Z,8.77
2018-12-29T12:37:35.716Z,9.67
2018-12-29T12:40:04.190Z,9.10
2018-12-29T12:42:32.584Z,9.87
2018-12-29T12:45:01.227Z,8.57
2018-12-29T12:47:29.647Z,8.20
2018-12-29T12:49:58.246Z,8.47
2018-12-29T12:52:27.241Z,8.93
2018-12-29T12:54:56.116Z,8.73
2018-12-29T12:57:25.020Z,9.17
2018-12-29T12:59:53.946Z,8.77
2018-12-29T13:02:22.826Z,6.60
2018-12-29T13:04:51.213Z,8.73
2018-12-29T13:07:19.669Z,8.70
2018-12-29T13:09:48.005Z,7.75
2018-12-29T13:12:16.415Z,9.07
2018-12-29T13:14:44.853Z,9.63
2018-12-29T13:17:13.405Z,8.77
2018-12-29T13:19:41.711Z,7.30
2018-12-29T13:22:10.202Z,10.23
2018-12-29T13:24:38.721Z,9.13
2018-12-29T13:27:07.129Z,7.17
2018-12-29T13:29:35.654Z,9.67
2018-12-29T13:32:04.303Z,8.03
2018-12-29T13:34:32.780Z,9.63
2018-12-29T13:37:01.733Z,9.23
2018-12-29T13:39:30.195Z,7.67
2018-12-29T13:41:58.560Z,6.40
2018-12-29T13:44:26.994Z,7.17
2018-12-29T13:46:55.435Z,8.27
2018-12-29T13:49:24.036Z,6.80
2018-12-29T13:51:52.459Z,8.10
2018-12-29T13:54:20.908Z,8.33
2018-12-29T13:56:49.512Z,8.70
2018-12-29T13:59:17.902Z,7.97
2018-12-29T14:01:46.321Z,8.67
2018-12-29T14:04:14.756Z,9.13
2018-12-29T14:06:43.153Z,8.30
2018-12-29T14:09:11.582Z,6.87
2018-12-29T14:11:39.964Z,9.90
2018-12-29T14:14:08.447Z,7.87
2018-12-29T14:16:37.179Z,8.63
2018-12-29T14:19:05.774Z,7.67
2018-12-29T14:21:34.130Z,6.43
2018-12-29T14:24:02.509Z,8.40
2018-12-29T14:26:30.905Z,6.00
2018-12-29T14:28:59.453Z,7.97
2018-12-29T14:31:27.901Z,8.33
2018-12-29T14:33:56.231Z,8.43
2018-12-29T14:36:24.561Z,7.67
2018-12-29T14:38:53.046Z,8.07
2018-12-29T14:41:21.956Z,6.90
2018-12-29T14:43:50.574Z,6.97
2018-12-29T14:46:19.105Z,7.33
2018-12-29T14:48:47.695Z,5.83
2018-12-29T14:51:16.219Z,4.83
2018-12-29T14:53:44.999Z,8.30
2018-12-29T14:56:13.423Z,7.40
2018-12-29T14:58:41.774Z,7.03
2018-12-29T15:01:10.087Z,6.50
2018-12-29T15:03:38.413Z,6.83
2018-12-29T15:06:07.174Z,5.27
2018-12-29T15:08:35.510Z,6.07
2018-12-29T15:11:03.880Z,5.97
2018-12-29T15:13:32.533Z,8.10
2018-12-29T15:16:00.957Z,4.80
2018-12-29T15:18:29.431Z,4.87
2018-12-29T15:20:58.265Z,5.20
2018-12-29T15:23:26.710Z,6.17
2018-12-29T15:25:55.107Z,8.00
2018-12-29T15:28:23.665Z,6.57
2018-12-29T15:30:52.099Z,4.93
2018-12-29T15:33:20.791Z,5.33
2018-12-29T15:35:49.126Z,4.07
2018-12-29T15:38:17.838Z,4.53
2018-12-29T15:40:46.882Z,4.00
2018-12-29T15:43:15.221Z,6.28
2018-12-29T15:45:43.932Z,4.67
2018-12-29T15:48:12.259Z,4.43
2018-12-29T15:50:40.606Z,4.37
2018-12-29T15:53:09.206Z,4.43
2018-12-29T15:55:37.609Z,4.73
2018-12-29T15:58:06.338Z,5.13
2018-12-29T16:00:34.773Z,5.27
2018-12-29T16:03:03.537Z,4.17
2018-12-29T16:05:32.218Z,3.87
2018-12-29T16:08:00.617Z,4.80
2018-12-29T16:10:28.946Z,4.50
2018-12-29T16:12:57.394Z,6.15
2018-12-29T16:15:25.975Z,5.53
2018-12-29T16:17:59.043Z,4.60
2018-12-29T16:20:27.393Z,5.17
2018-12-29T16:22:56.163Z,4.60
2018-12-29T16:25:24.886Z,4.70
2018-12-29T16:27:53.419Z,4.20
2018-12-29T16:30:22.077Z,5.77
2018-12-29T16:32:50.845Z,5.17
2018-12-29T16:35:19.370Z,4.43
2018-12-29T16:37:47.947Z,5.27
2018-12-29T16:40:16.433Z,4.43
2018-12-29T16:42:45.002Z,5.17
2018-12-29T16:45:13.436Z,5.13
2018-12-29T16:47:42.122Z,4.47
2018-12-29T16:50:10.494Z,5.23
2018-12-29T16:52:39.150Z,4.60
2018-12-29T16:55:07.989Z,5.20
2018-12-29T16:57:36.432Z,4.87
2018-12-29T17:00:05.230Z,5.50
2018-12-29T17:02:33.630Z,4.40
2018-12-29T17:05:02.307Z,4.90
2018-12-29T17:07:30.649Z,4.93
2018-12-29T17:09:58.982Z,5.43
2018-12-29T17:12:27.644Z,5.40
2018-12-29T17:14:56.281Z,4.97
2018-12-29T17:17:24.626Z,4.27
2018-12-29T17:19:53.061Z,4.53
2018-12-29T17:22:21.414Z,4.13
2018-12-29T17:24:49.758Z,4.27
2018-12-29T17:27:18.154Z,4.40
2018-12-29T17:29:46.606Z,4.60
2018-12-29T17:32:15.097Z,3.87
2018-12-29T17:34:43.538Z,4.07
2018-12-29T17:37:11.880Z,3.83
2018-12-29T17:39:40.817Z,4.03
2018-12-29T17:42:09.142Z,2.90
2018-12-29T17:44:37.601Z,3.53
2018-12-29T17:47:06.018Z,2.70
2018-12-29T17:49:34.427Z,3.77
2018-12-29T17:52:03.114Z,3.90
2018-12-29T17:54:31.814Z,3.37
2018-12-29T17:57:00.194Z,3.20
2018-12-29T17:59:28.550Z,2.23
2018-12-29T18:01:56.969Z,2.40
2018-12-29T18:04:26.196Z,2.10
2018-12-29T18:06:54.945Z,1.83
2018-12-29T18:09:23.404Z,1.63
2018-12-29T18:11:52.065Z,1.50
2018-12-29T18:14:20.515Z,1.60
2018-12-29T18:16:48.951Z,1.63
2018-12-29T18:19:17.668Z,1.43
2018-12-29T18:21:46.174Z,1.97
2018-12-29T18:24:14.503Z,1.60
2018-12-29T18:26:43.221Z,1.30
2018-12-29T18:29:11.894Z,1.20
2018-12-29T18:31:40.193Z,1.37
2018-12-29T18:34:08.614Z,1.40
2018-12-29T18:36:37.006Z,1.00
2018-12-29T18:39:06.758Z,0.83
2018-12-29T18:41:35.074Z,1.47
2018-12-29T18:44:03.678Z,1.27
2018-12-29T18:46:32.114Z,0.80
2018-12-29T18:49:00.838Z,1.37
2018-12-29T18:51:29.165Z,1.10
2018-12-29T18:53:57.591Z,0.87
2018-12-29T18:56:26.244Z,0.73
2018-12-29T18:58:54.638Z,0.60
2018-12-29T19:01:23.238Z,0.80
2018-12-29T19:03:51.574Z,1.10
2018-12-29T19:06:20.130Z,0.73
2018-12-29T19:08:48.915Z,0.77
2018-12-29T19:11:17.260Z,0.33
2018-12-29T19:13:45.731Z,1.03
2018-12-29T19:16:14.521Z,1.20
2018-12-29T19:18:43.102Z,1.10
2018-12-29T19:21:11.842Z,1.00
2018-12-29T19:23:40.587Z,0.67
2018-12-29T19:26:09.318Z,1.30
2018-12-29T19:28:38.018Z,0.53
2018-12-29T19:31:06.340Z,1.13
2018-12-29T19:33:34.930Z,0.90
2018-12-29T19:36:03.270Z,1.13
2018-12-29T19:38:31.781Z,0.93
2018-12-29T19:41:00.275Z,0.90
2018-12-29T19:43:28.972Z,0.87
2018-12-29T19:45:57.363Z,0.77
2018-12-29T19:48:25.763Z,0.63
2018-12-29T19:50:55.011Z,1.27
2018-12-29T19:53:23.688Z,1.20
2018-12-29T19:55:52.431Z,1.47
2018-12-29T19:58:20.749Z,1.30
2018-12-29T20:00:49.378Z,0.70
2018-12-29T20:03:18.097Z,0.93
2018-12-29T20:05:46.822Z,0.70
2018-12-29T20:08:15.229Z,0.60
2018-12-29T20:10:43.629Z,0.90
2018-12-29T20:13:12.003Z,0.70
2018-12-29T20:15:40.325Z,1.17
2018-12-29T20:18:08.788Z,0.47
2018-12-29T20:20:37.269Z,0.57
2018-12-29T20:23:05.728Z,0.83
2018-12-29T20:25:34.209Z,0.97
2018-12-29T20:28:02.789Z,1.37
2018-12-29T20:30:31.208Z,0.93
2018-12-29T20:32:59.618Z,0.70
2018-12-29T20:35:28.232Z,4.35
2018-12-29T20:37:57.327Z,1.90
2018-12-29T20:40:25.694Z,1.20
2018-12-29T20:42:54.035Z,0.90
2018-12-29T20:45:22.596Z,1.90
2018-12-29T20:47:50.994Z,1.07
2018-12-29T20:50:19.606Z,1.10
2018-12-29T20:52:48.436Z,1.60
2018-12-29T20:55:17.272Z,1.60
2018-12-29T20:57:45.919Z,0.87
2018-12-29T21:00:14.462Z,1.17
2018-12-29T21:02:42.881Z,1.23
2018-12-29T21:05:12.483Z,1.23
2018-12-29T21:07:41.025Z,0.87
2018-12-29T21:10:09.591Z,0.90
2018-12-29T21:12:38.118Z,1.23
2018-12-29T21:15:06.950Z,0.57
2018-12-29T21:17:35.456Z,0.50
2018-12-29T21:20:03.935Z,0.70
2018-12-29T21:22:32.266Z,0.93
2018-12-29T21:25:00.639Z,0.57
2018-12-29T21:27:29.074Z,0.90
2018-12-29T21:29:57.435Z,0.53
2018-12-29T21:32:26.109Z,0.63
2018-12-29T21:34:54.698Z,0.63
2018-12-29T21:37:23.099Z,0.60
2018-12-29T21:39:51.620Z,0.60
2018-12-29T21:42:19.938Z,0.60
2018-12-29T21:44:48.265Z,0.93
2018-12-29T21:47:16.854Z,0.80
2018-12-29T21:49:45.162Z,0.83
2018-12-29T21:52:13.518Z,0.63
2018-12-29T21:54:41.862Z,0.80
2018-12-29T21:57:10.373Z,1.50
2018-12-29T21:59:38.689Z,0.53
2018-12-29T22:02:07.318Z,0.60
2018-12-29T22:04:35.645Z,0.27
2018-12-29T22:07:04.051Z,0.80
2018-12-29T22:09:33.273Z,0.60
2018-12-29T22:12:01.707Z,1.13
2018-12-29T22:14:30.645Z,2.07
2018-12-29T22:16:59.063Z,0.63
2018-12-29T22:19:27.409Z,0.93
2018-12-29T22:21:55.789Z,0.87
2018-12-29T22:24:24.193Z,0.40
2018-12-29T22:26:52.517Z,0.70
2018-12-29T22:29:20.874Z,1.07
2018-12-29T22:31:49.238Z,0.60
2018-12-29T22:34:17.585Z,0.70
2018-12-29T22:36:45.925Z,0.77
2018-12-29T22:39:14.294Z,0.60
2018-12-29T22:41:43.001Z,0.57
2018-12-29T22:44:11.306Z,0.37
2018-12-29T22:46:39.618Z,0.63
2018-12-29T22:49:07.957Z,0.50
2018-12-29T22:51:36.395Z,0.50
2018-12-29T22:54:04.889Z,0.67
2018-12-29T22:56:33.205Z,0.90
2018-12-29T22:59:01.573Z,0.70
2018-12-29T23:01:30.074Z,0.67
2018-12-29T23:03:58.379Z,0.37
2018-12-29T23:06:26.962Z,0.63
2018-12-29T23:08:55.350Z,0.70
2018-12-29T23:11:23.721Z,1.23
2018-12-29T23:13:52.038Z,0.67
2018-12-29T23:16:20.522Z,0.60
2018-12-29T23:18:49.282Z,0.43
2018-12-29T23:21:17.673Z,0.50
2018-12-29T23:23:45.986Z,0.60
2018-12-29T23:26:14.401Z,0.57
2018-12-29T23:28:42.807Z,0.70
2018-12-29T23:31:11.139Z,0.63
2018-12-29T23:33:39.609Z,0.17
2018-12-29T23:36:07.994Z,0.33
2018-12-29T23:38:36.339Z,0.47
2018-12-29T23:41:04.826Z,0.53
2018-12-29T23:43:33.613Z,0.80
2018-12-29T23:46:02.137Z,0.37
2018-12-29T23:48:30.461Z,0.60
2018-12-29T23:51:05.613Z,0.97
2018-12-29T23:53:28.947Z,1.60
2018-12-29T23:55:57.710Z,0.80
2018-12-29T23:58:26.170Z,1.37
